Time;durP1;ratioP1;P1;durP2;ratioP2;P2;SDS_P1;SDS_P2;PMS_P1;PMS_P2;Temp;Humidity;BMP_temperature;BMP_pressure;BME280_temperature;BME280_humidity;BME280_pressure;Samples;Min_cycle;Max_cycle;Signal;HPM_P1;HPM_P2
2024/01/10 00:00:15;;;;;;;10.90;1.90;;;26.80;99.90;;;;;;5097826;28;20202;-79
2024/01/10 00:02:46;;;;;;;5.68;1.73;;;26.80;99.90;;;;;;5114385;28;20603;-80
2024/01/10 00:05:16;;;;;;;6.60;1.88;;;26.90;99.90;;;;;;5109909;28;20206;-80
2024/01/10 00:07:47;;;;;;;6.20;1.60;;;27.00;99.90;;;;;;5115728;28;20704;-80
2024/01/10 00:10:18;;;;;;;6.22;1.77;;;27.00;99.90;;;;;;5124191;28;20273;-79
2024/01/10 00:12:49;;;;;;;5.18;1.65;;;27.10;99.90;;;;;;5113628;28;20676;-79
2024/01/10 00:15:22;;;;;;;6.55;1.90;;;27.20;99.90;;;;;;5114059;27;20195;-80
2024/01/10 00:17:52;;;;;;;4.60;1.70;;;27.30;99.90;;;;;;5095928;28;20270;-79
2024/01/10 00:20:23;;;;;;;5.63;1.90;;;27.30;99.90;;;;;;5106716;28;20203;-79
2024/01/10 00:22:57;;;;;;;4.68;1.90;;;27.30;99.90;;;;;;5111948;28;20226;-80
2024/01/10 00:25:28;;;;;;;7.00;2.03;;;27.40;99.90;;;;;;5111869;28;20657;-81
2024/01/10 00:27:58;;;;;;;4.55;1.52;;;27.50;99.90;;;;;;5096017;28;20427;-79
2024/01/10 00:30:34;;;;;;;4.85;1.55;;;27.70;99.90;;;;;;5094736;28;20206;-81
2024/01/10 00:33:05;;;;;;;6.80;1.92;;;27.70;99.90;;;;;;5109878;28;20182;-79
2024/01/10 00:35:36;;;;;;;6.35;1.60;;;27.70;99.90;;;;;;5105375;28;21739;-81
2024/01/10 00:38:07;;;;;;;6.60;1.80;;;27.80;99.90;;;;;;5098488;28;20210;-82
2024/01/10 00:40:38;;;;;;;6.28;1.77;;;27.80;99.90;;;;;;5095829;28;20196;-81
2024/01/10 00:43:08;;;;;;;5.93;1.60;;;27.80;99.90;;;;;;5095878;28;20201;-81
2024/01/10 00:45:44;;;;;;;7.82;2.25;;;27.90;99.90;;;;;;5114599;28;20201;-81
2024/01/10 00:48:15;;;;;;;6.00;1.98;;;27.90;99.90;;;;;;5110916;28;20237;-81
2024/01/10 00:50:46;;;;;;;6.35;1.75;;;28.00;99.90;;;;;;5112140;28;20281;-81
2024/01/10 00:53:16;;;;;;;6.22;2.00;;;27.90;99.90;;;;;;5097438;28;20277;-81
2024/01/10 00:55:48;;;;;;;8.45;2.28;;;27.90;99.90;;;;;;5107414;28;20657;-81
2024/01/10 00:58:18;;;;;;;6.43;1.95;;;27.80;99.90;;;;;;5111218;28;20209;-81
2024/01/10 01:00:54;;;;;;;6.75;1.67;;;27.80;99.90;;;;;;5111657;28;20195;-81
2024/01/10 01:03:24;;;;;;;5.90;2.00;;;27.70;99.90;;;;;;5096743;28;20198;-80
2024/01/10 01:05:55;;;;;;;6.05;1.80;;;27.80;99.90;;;;;;5104416;28;20198;-81
2024/01/10 01:08:26;;;;;;;7.85;1.70;;;27.70;99.90;;;;;;5098276;28;20274;-79
2024/01/10 01:10:57;;;;;;;6.78;1.80;;;27.60;99.90;;;;;;5110479;28;20213;-81
2024/01/10 01:13:27;;;;;;;8.10;1.90;;;27.70;99.90;;;;;;5104466;28;20280;-81
2024/01/10 01:16:00;;;;;;;6.53;1.67;;;27.80;99.90;;;;;;5108913;28;20281;-81
2024/01/10 01:18:31;;;;;;;7.82;1.83;;;27.90;99.90;;;;;;5092872;28;20210;-81
2024/01/10 01:21:02;;;;;;;5.22;1.70;;;28.10;99.90;;;;;;5096750;28;20195;-81
2024/01/10 01:23:32;;;;;;;6.03;1.80;;;28.10;99.90;;;;;;5106139;28;20199;-81
2024/01/10 01:26:04;;;;;;;7.55;1.90;;;28.10;99.90;;;;;;5107960;28;20289;-80
2024/01/10 01:28:34;;;;;;;4.03;1.58;;;28.10;99.90;;;;;;5091224;28;20250;-78
2024/01/10 01:31:07;;;;;;;5.53;1.77;;;27.90;99.90;;;;;;5103514;28;20199;-80
2024/01/10 01:33:43;;;;;;;7.90;2.00;;;28.00;99.90;;;;;;5115382;28;20204;-80
2024/01/10 01:36:14;;;;;;;3.97;1.63;;;27.90;99.90;;;;;;5107746;28;20195;-79
2024/01/10 01:38:45;;;;;;;8.85;3.10;;;27.90;99.90;;;;;;5101403;28;20203;-79
2024/01/10 01:41:16;;;;;;;7.35;2.38;;;28.00;99.90;;;;;;5095529;28;20724;-79
2024/01/10 01:43:47;;;;;;;6.45;2.42;;;28.00;99.90;;;;;;5094264;28;20264;-79
2024/01/10 01:46:19;;;;;;;7.07;2.42;;;28.20;99.90;;;;;;5093055;28;20733;-79
2024/01/10 01:48:52;;;;;;;7.00;1.98;;;28.10;99.90;;;;;;5095593;28;20241;-79
2024/01/10 01:51:24;;;;;;;5.78;1.92;;;28.10;99.90;;;;;;5096561;28;20282;-80
2024/01/10 01:53:56;;;;;;;8.20;2.17;;;28.20;99.90;;;;;;5097645;28;20218;-79
2024/01/10 01:56:27;;;;;;;4.90;1.85;;;28.10;99.90;;;;;;5104423;28;20550;-81
2024/01/10 01:58:58;;;;;;;9.23;2.28;;;28.30;99.90;;;;;;5100822;28;20550;-81
2024/01/10 02:01:31;;;;;;;4.75;1.90;;;28.40;99.90;;;;;;5096603;28;20198;-80
2024/01/10 02:04:04;;;;;;;7.43;1.90;;;28.40;99.90;;;;;;5108167;28;20226;-80
2024/01/10 02:06:35;;;;;;;4.70;1.90;;;28.40;99.90;;;;;;5106422;28;20199;-79
2024/01/10 02:09:06;;;;;;;6.13;2.00;;;28.30;99.90;;;;;;5105818;28;20199;-79
2024/01/10 02:11:39;;;;;;;4.95;2.10;;;28.30;99.90;;;;;;5092953;28;20677;-79
2024/01/10 02:14:10;;;;;;;6.75;2.20;;;28.40;99.90;;;;;;5098169;28;20668;-79
2024/01/10 02:16:43;;;;;;;4.38;2.10;;;28.40;99.90;;;;;;5100773;28;20221;-79
2024/01/10 02:19:26;;;;;;;7.53;2.60;;;28.60;99.90;;;;;;5094559;28;20203;-78
2024/01/10 02:21:57;;;;;;;4.97;2.20;;;28.60;99.90;;;;;;5108406;28;20193;-81
2024/01/10 02:24:28;;;;;;;5.93;2.60;;;28.70;99.90;;;;;;5092344;28;20542;-81
2024/01/10 02:27:01;;;;;;;4.38;2.30;;;28.50;99.90;;;;;;5094680;28;20187;-80
2024/01/10 02:29:32;;;;;;;8.45;3.03;;;28.70;99.90;;;;;;5104178;28;20194;-80
2024/01/10 02:32:03;;;;;;;5.57;2.53;;;28.60;99.90;;;;;;5112410;28;20240;-81
2024/01/10 02:34:34;;;;;;;5.65;2.45;;;28.60;99.90;;;;;;5112073;28;20281;-80
2024/01/10 02:37:05;;;;;;;4.90;2.33;;;28.60;99.90;;;;;;5113035;28;20191;-80
2024/01/10 02:39:36;;;;;;;7.38;2.30;;;28.60;99.90;;;;;;5103135;28;20195;-80
2024/01/10 02:42:10;;;;;;;5.18;2.25;;;28.60;99.90;;;;;;5099045;28;20215;-80
2024/01/10 02:44:40;;;;;;;5.82;2.45;;;28.60;99.90;;;;;;5100665;28;20199;-81
2024/01/10 02:47:11;;;;;;;6.43;3.03;;;28.70;99.90;;;;;;5096091;28;20215;-80
2024/01/10 02:49:42;;;;;;;6.55;3.60;;;28.70;99.90;;;;;;5103178;28;20650;-80
2024/01/10 02:52:13;;;;;;;9.07;3.97;;;28.70;99.90;;;;;;5092462;28;20214;-81
2024/01/10 02:54:44;;;;;;;8.25;3.80;;;28.50;99.90;;;;;;5092968;28;20206;-82
2024/01/10 02:57:17;;;;;;;7.68;3.17;;;28.50;99.90;;;;;;5100710;28;20206;-80
2024/01/10 02:59:50;;;;;;;5.30;3.17;;;28.30;99.90;;;;;;5091086;28;20202;-80
2024/01/10 03:02:21;;;;;;;6.53;3.03;;;28.30;99.90;;;;;;5090329;28;20209;-81
2024/01/10 03:04:52;;;;;;;5.18;3.20;;;28.40;99.90;;;;;;5094205;28;20238;-81
2024/01/10 03:07:24;;;;;;;6.35;2.85;;;28.40;99.90;;;;;;5095740;28;20225;-81
2024/01/10 03:09:55;;;;;;;6.43;3.30;;;28.40;99.90;;;;;;5091909;28;20203;-80
2024/01/10 03:12:28;;;;;;;6.15;3.60;;;28.40;99.90;;;;;;5110887;28;20582;-82
2024/01/10 03:14:58;;;;;;;7.70;4.00;;;28.40;99.90;;;;;;5110214;28;20187;-82
2024/01/10 03:17:29;;;;;;;8.48;4.57;;;28.60;99.90;;;;;;5111618;28;20203;-80
2024/01/10 03:20:00;;;;;;;7.50;4.30;;;28.60;99.90;;;;;;5092616;28;20195;-82
2024/01/10 03:22:31;;;;;;;7.68;4.35;;;28.70;99.90;;;;;;5091306;28;20198;-82
2024/01/10 03:25:02;;;;;;;6.03;4.80;;;28.60;99.90;;;;;;5098329;28;20190;-82
2024/01/10 03:27:35;;;;;;;6.80;4.57;;;28.70;99.90;;;;;;5099661;28;20540;-81
2024/01/10 03:30:06;;;;;;;9.10;4.90;;;28.70;99.90;;;;;;5090974;28;22094;-81
2024/01/10 03:32:39;;;;;;;8.23;4.80;;;28.80;99.90;;;;;;5091210;28;20693;-81
2024/01/10 03:35:11;;;;;;;6.00;3.97;;;28.90;99.90;;;;;;5092358;28;20201;-81
2024/01/10 03:37:45;;;;;;;7.85;4.10;;;29.00;99.90;;;;;;5094330;28;20195;-81
2024/01/10 03:40:16;;;;;;;8.88;4.32;;;29.00;99.90;;;;;;5094675;28;20199;-82
2024/01/10 03:42:49;;;;;;;10.43;4.30;;;29.00;99.90;;;;;;5094787;28;20215;-80
2024/01/10 03:45:22;;;;;;;6.00;3.85;;;28.90;99.90;;;;;;5094741;28;20637;-80
2024/01/10 03:47:53;;;;;;;6.18;4.20;;;28.80;99.90;;;;;;5094770;28;20283;-81
2024/01/10 03:50:27;;;;;;;7.90;3.70;;;28.70;99.90;;;;;;5093094;28;20554;-81
2024/01/10 03:52:58;;;;;;;7.57;3.90;;;28.60;99.90;;;;;;5101617;28;20675;-81
2024/01/10 03:55:33;;;;;;;7.78;3.55;;;28.60;99.90;;;;;;5101932;28;20729;-81
2024/01/10 03:58:09;;;;;;;7.78;3.47;;;28.50;99.90;;;;;;5104004;28;20237;-81
2024/01/10 04:00:42;;;;;;;9.00;3.85;;;28.50;99.90;;;;;;5103538;28;20195;-82
2024/01/10 04:03:16;;;;;;;8.85;4.32;;;28.50;99.90;;;;;;5104066;28;20191;-82
2024/01/10 04:05:47;;;;;;;5.75;4.15;;;28.60;99.90;;;;;;5113645;28;20187;-82
2024/01/10 04:08:25;;;;;;;6.40;3.65;;;28.70;99.90;;;;;;5111768;28;20575;-83
2024/01/10 04:11:00;;;;;;;7.40;3.22;;;28.80;99.90;;;;;;5106428;28;20326;-81
2024/01/10 04:13:34;;;;;;;6.28;3.42;;;28.60;99.90;;;;;;5103873;28;20274;-81
2024/01/10 04:16:05;;;;;;;8.75;4.15;;;28.80;99.90;;;;;;5097308;28;20202;-81
2024/01/10 04:18:36;;;;;;;5.97;3.63;;;28.90;99.90;;;;;;5096160;28;20191;-82
2024/01/10 04:21:09;;;;;;;7.93;3.78;;;28.90;99.90;;;;;;5104006;28;20203;-82
2024/01/10 04:23:40;;;;;;;5.85;3.15;;;28.80;99.90;;;;;;5092498;28;20740;-82
2024/01/10 04:26:11;;;;;;;5.60;3.65;;;28.80;99.90;;;;;;5102825;28;20277;-82
2024/01/10 04:28:44;;;;;;;6.93;3.33;;;28.60;99.90;;;;;;5093073;28;20223;-83
2024/01/10 04:31:14;;;;;;;6.47;3.35;;;28.80;99.90;;;;;;5100078;28;20256;-83
2024/01/10 04:33:45;;;;;;;6.80;3.58;;;28.80;99.90;;;;;;5109544;28;20198;-82
2024/01/10 04:36:16;;;;;;;6.18;3.45;;;28.80;99.90;;;;;;5109512;28;20210;-83
2024/01/10 04:38:47;;;;;;;6.45;3.80;;;28.90;99.90;;;;;;5105479;28;20246;-81
2024/01/10 04:41:17;;;;;;;7.40;3.80;;;28.90;99.90;;;;;;5091933;28;20223;-81
2024/01/10 04:43:50;;;;;;;4.93;3.33;;;28.90;99.90;;;;;;5089068;28;20195;-82
2024/01/10 04:46:21;;;;;;;7.05;3.40;;;29.00;99.90;;;;;;5090563;28;20591;-81
2024/01/10 04:48:52;;;;;;;5.80;3.03;;;29.00;99.90;;;;;;5089840;28;20249;-82
2024/01/10 04:51:22;;;;;;;6.20;2.88;;;28.90;99.90;;;;;;5089981;28;20282;-82
2024/01/10 04:53:53;;;;;;;5.90;2.80;;;29.00;99.90;;;;;;5094347;28;20188;-81
2024/01/10 04:56:24;;;;;;;4.55;2.58;;;28.90;99.90;;;;;;5095042;28;20192;-81
2024/01/10 04:58:57;;;;;;;5.53;2.90;;;28.90;99.90;;;;;;5101643;28;20199;-82
2024/01/10 05:01:28;;;;;;;5.10;2.67;;;28.80;99.90;;;;;;5095391;28;20214;-81
2024/01/10 05:03:58;;;;;;;7.50;2.53;;;28.90;99.90;;;;;;5092117;28;20187;-81
2024/01/10 05:06:29;;;;;;;7.05;3.00;;;29.00;99.90;;;;;;5092255;28;20676;-81
2024/01/10 05:09:00;;;;;;;5.25;3.03;;;29.00;99.90;;;;;;5089711;28;20225;-81
2024/01/10 05:11:31;;;;;;;4.07;2.70;;;29.10;99.90;;;;;;5091813;28;20195;-81
2024/01/10 05:14:03;;;;;;;6.05;2.70;;;29.20;99.90;;;;;;5110117;28;20194;-79
2024/01/10 05:16:34;;;;;;;5.07;2.40;;;29.10;99.90;;;;;;5092953;28;20196;-80
2024/01/10 05:19:05;;;;;;;5.28;2.65;;;29.10;99.90;;;;;;5095763;28;20201;-80
2024/01/10 05:21:36;;;;;;;4.55;2.58;;;28.90;99.90;;;;;;5110247;28;20683;-79
2024/01/10 05:24:07;;;;;;;7.65;2.92;;;28.70;99.90;;;;;;5102796;28;20206;-80
2024/01/10 05:26:38;;;;;;;9.20;2.80;;;28.60;99.90;;;;;;5100735;28;20618;-80
2024/01/10 05:29:10;;;;;;;4.72;2.60;;;28.60;99.90;;;;;;5097309;28;20230;-80
2024/01/10 05:31:41;;;;;;;6.63;2.47;;;28.60;99.90;;;;;;5093046;28;20202;-80
2024/01/10 05:34:12;;;;;;;7.50;2.97;;;28.50;99.90;;;;;;5093808;28;20195;-80
2024/01/10 05:36:43;;;;;;;6.85;3.58;;;28.50;99.90;;;;;;5099671;28;20607;-80
2024/01/10 05:39:15;;;;;;;7.47;3.03;;;28.50;99.90;;;;;;5093362;28;20203;-80
2024/01/10 05:41:50;;;;;;;6.40;3.20;;;28.60;99.90;;;;;;5093146;28;20241;-80
2024/01/10 05:44:22;;;;;;;5.88;2.75;;;28.60;99.90;;;;;;5096568;28;20191;-80
2024/01/10 05:46:53;;;;;;;5.75;3.00;;;28.60;99.90;;;;;;5093352;28;20191;-80
2024/01/10 05:49:24;;;;;;;6.45;3.13;;;28.50;99.90;;;;;;5115818;28;20233;-81
2024/01/10 05:51:55;;;;;;;7.20;3.47;;;28.60;99.90;;;;;;5092701;28;20199;-81
2024/01/10 05:54:25;;;;;;;5.85;3.42;;;28.60;99.90;;;;;;5091443;28;20195;-80
2024/01/10 05:56:58;;;;;;;5.78;3.28;;;28.70;99.90;;;;;;5092659;28;20202;-80
2024/01/10 05:59:31;;;;;;;4.95;2.88;;;28.70;99.90;;;;;;5092617;28;20206;-81
2024/01/10 06:02:02;;;;;;;5.75;2.60;;;28.70;99.90;;;;;;5091745;28;20733;-82
2024/01/10 06:04:33;;;;;;;4.85;3.30;;;28.70;99.90;;;;;;5101718;28;20212;-81
2024/01/10 06:07:04;;;;;;;4.07;2.90;;;28.90;99.90;;;;;;5109742;28;20186;-80
2024/01/10 06:09:35;;;;;;;5.10;3.58;;;28.90;99.90;;;;;;5106180;28;20256;-80
2024/01/10 06:12:06;;;;;;;5.43;2.95;;;29.20;99.90;;;;;;5097864;28;20199;-81
2024/01/10 06:14:39;;;;;;;4.72;3.55;;;29.60;99.90;;;;;;5103710;28;20226;-81
2024/01/10 06:17:10;;;;;;;6.07;3.53;;;29.80;99.90;;;;;;5092237;28;20677;-80
2024/01/10 06:19:41;;;;;;;6.32;3.25;;;29.90;99.90;;;;;;5092334;28;20656;-81
2024/01/10 06:22:12;;;;;;;4.30;2.70;;;30.00;99.90;;;;;;5092029;28;20191;-78
2024/01/10 06:24:43;;;;;;;3.92;3.10;;;30.10;99.90;;;;;;5101060;28;20194;-80
2024/01/10 06:27:14;;;;;;;5.50;2.95;;;30.10;99.90;;;;;;5095730;28;20195;-80
2024/01/10 06:29:49;;;;;;;4.57;2.60;;;30.20;99.90;;;;;;5103779;28;20302;-81
2024/01/10 06:32:19;;;;;;;4.03;2.40;;;30.10;99.90;;;;;;5104334;28;20217;-80
2024/01/10 06:34:50;;;;;;;4.68;2.90;;;30.10;99.90;;;;;;5095023;28;20187;-79
2024/01/10 06:37:21;;;;;;;3.60;2.80;;;30.40;99.90;;;;;;5099891;28;20199;-80
2024/01/10 06:39:52;;;;;;;3.63;2.35;;;30.40;99.90;;;;;;5106101;28;20209;-80
2024/01/10 06:42:23;;;;;;;4.63;2.80;;;30.30;99.90;;;;;;5100432;28;20227;-80
2024/01/10 06:44:55;;;;;;;5.20;2.95;;;30.10;99.90;;;;;;5092164;28;20238;-80
2024/01/10 06:47:26;;;;;;;4.40;3.28;;;29.90;99.90;;;;;;5098287;28;20629;-80
2024/01/10 06:50:00;;;;;;;3.80;2.78;;;29.80;99.90;;;;;;5097146;28;20218;-79
2024/01/10 06:52:30;;;;;;;3.58;2.47;;;29.70;99.90;;;;;;5108058;28;20813;-80
2024/01/10 06:55:01;;;;;;;3.05;2.20;;;30.00;99.90;;;;;;5091469;28;20195;-80
2024/01/10 06:57:32;;;;;;;4.78;2.60;;;30.30;99.90;;;;;;5093377;28;20205;-80
2024/01/10 07:00:07;;;;;;;4.43;2.30;;;30.20;99.90;;;;;;5100572;28;20583;-80
2024/01/10 07:02:37;;;;;;;3.22;2.15;;;30.00;99.90;;;;;;5096890;28;20201;-80
2024/01/10 07:07:54;;;;;;;3.78;2.10;;;29.60;99.90;;;;;;5105732;27;20672;-81
2024/01/10 07:10:27;;;;;;;3.38;1.95;;;29.50;99.90;;;;;;5101496;28;20234;-81
2024/01/10 07:12:58;;;;;;;3.67;1.80;;;29.50;99.90;;;;;;5105550;28;20196;-81
2024/01/10 07:15:30;;;;;;;2.13;1.60;;;29.50;99.90;;;;;;5095811;28;20202;-81
2024/01/10 07:18:02;;;;;;;4.18;2.00;;;29.40;99.90;;;;;;5101769;28;20191;-81
2024/01/10 07:20:32;;;;;;;3.90;1.90;;;29.20;99.90;;;;;;5100327;28;20230;-82
2024/01/10 07:23:03;;;;;;;4.22;1.73;;;28.90;99.90;;;;;;5106572;28;20195;-82
2024/01/10 07:25:34;;;;;;;2.67;1.80;;;28.60;99.90;;;;;;5111423;28;20205;-82
2024/01/10 07:28:05;;;;;;;3.08;1.73;;;28.50;99.90;;;;;;5108244;28;20236;-82
2024/01/10 07:30:37;;;;;;;3.83;1.73;;;28.40;99.90;;;;;;5097949;27;20685;-81
2024/01/10 07:33:08;;;;;;;4.05;2.10;;;28.40;99.90;;;;;;5092074;28;20206;-81
2024/01/10 07:35:39;;;;;;;1.73;1.50;;;28.30;99.90;;;;;;5096195;28;20199;-81
2024/01/10 07:38:10;;;;;;;3.08;1.80;;;28.20;99.90;;;;;;5098562;28;20191;-81
2024/01/10 07:40:40;;;;;;;5.53;2.10;;;28.20;99.90;;;;;;5090574;28;20206;-81
2024/01/10 07:43:12;;;;;;;3.17;1.65;;;28.20;99.90;;;;;;5092194;28;20198;-81
2024/01/10 07:45:45;;;;;;;4.20;1.88;;;28.30;99.90;;;;;;5110951;28;20199;-81
2024/01/10 07:48:16;;;;;;;4.72;1.80;;;28.80;99.90;;;;;;5108563;28;20234;-81
2024/01/10 07:50:47;;;;;;;2.15;1.60;;;29.20;99.90;;;;;;5091150;28;20646;-80
2024/01/10 07:53:17;;;;;;;1.67;1.50;;;29.20;99.90;;;;;;5090450;28;20203;-80
2024/01/10 07:55:48;;;;;;;2.60;1.45;;;29.20;99.90;;;;;;5104652;28;20195;-80
2024/01/10 07:58:19;;;;;;;2.45;1.60;;;29.20;99.90;;;;;;5097371;28;20200;-80
2024/01/10 08:00:52;;;;;;;4.50;1.67;;;29.70;99.90;;;;;;5090874;28;20217;-80
2024/01/10 08:03:22;;;;;;;3.67;1.80;;;30.20;99.90;;;;;;5090091;28;20195;-79
2024/01/10 08:05:53;;;;;;;3.03;1.67;;;30.30;99.90;;;;;;5090221;28;20201;-80
2024/01/10 08:08:24;;;;;;;3.45;1.83;;;30.60;99.90;;;;;;5088908;28;20269;-79
2024/01/10 08:10:55;;;;;;;3.25;1.48;;;30.50;99.90;;;;;;5089993;28;20227;-79
2024/01/10 08:13:25;;;;;;;3.72;1.67;;;30.30;99.90;;;;;;5089381;28;20551;-80
2024/01/10 08:15:58;;;;;;;2.63;1.38;;;30.20;99.90;;;;;;5100683;28;20191;-79
2024/01/10 08:18:30;;;;;;;2.80;1.48;;;30.00;99.90;;;;;;5108762;28;20205;-79
2024/01/10 08:21:01;;;;;;;3.30;1.40;;;29.80;99.90;;;;;;5092014;28;20207;-80
2024/01/10 08:23:31;;;;;;;4.28;1.90;;;29.50;99.90;;;;;;5100582;28;20198;-79
2024/01/10 08:26:02;;;;;;;2.83;1.70;;;29.30;99.90;;;;;;5099301;28;20200;-79
2024/01/10 08:28:33;;;;;;;2.75;1.55;;;29.00;99.90;;;;;;5106586;28;20665;-79
2024/01/10 08:31:05;;;;;;;2.75;1.50;;;28.70;99.90;;;;;;5109037;28;20226;-79
2024/01/10 08:33:36;;;;;;;2.30;1.48;;;28.50;99.90;;;;;;5110084;28;20209;-79
2024/01/10 08:36:08;;;;;;;4.90;1.90;;;28.30;99.90;;;;;;5110570;28;20201;-80
2024/01/10 08:38:39;;;;;;;3.10;1.80;;;28.20;99.90;;;;;;5092821;27;20195;-79
2024/01/10 08:41:11;;;;;;;3.63;1.67;;;28.00;99.90;;;;;;5102916;28;20214;-79
2024/01/10 08:43:42;;;;;;;4.00;1.80;;;27.90;99.90;;;;;;5096134;28;20618;-78
2024/01/10 08:46:15;;;;;;;4.22;1.67;;;27.80;99.90;;;;;;5110258;28;20205;-77
2024/01/10 08:48:47;;;;;;;3.92;2.05;;;27.60;99.90;;;;;;5105999;28;20235;-77
2024/01/10 08:51:18;;;;;;;3.63;1.90;;;27.60;99.90;;;;;;5098078;28;20198;-77
2024/01/10 08:53:48;;;;;;;4.28;1.85;;;27.50;99.90;;;;;;5092325;28;20203;-77
2024/01/10 08:56:19;;;;;;;4.63;1.92;;;27.50;99.90;;;;;;5091250;28;20206;-77
2024/01/10 08:58:50;;;;;;;2.95;1.50;;;27.50;99.90;;;;;;5100857;28;20218;-77
2024/01/10 09:01:23;;;;;;;4.15;1.65;;;27.40;99.90;;;;;;5101914;28;20195;-76
2024/01/10 09:03:54;;;;;;;3.75;1.63;;;27.30;99.90;;;;;;5093403;28;20596;-79
2024/01/10 09:06:28;;;;;;;5.00;2.00;;;27.30;99.90;;;;;;5093630;28;20561;-79
2024/01/10 09:09:45;;;;;;;3.40;1.90;;;27.30;99.90;;;;;;5093463;28;20202;-79
2024/01/10 09:12:16;;;;;;;3.25;2.00;;;27.30;99.90;;;;;;5081002;28;20199;-79
2024/01/10 09:14:46;;;;;;;5.35;1.98;;;27.30;99.90;;;;;;5113768;28;20251;-78
2024/01/10 09:17:19;;;;;;;3.45;1.92;;;27.20;99.90;;;;;;5092989;28;20666;-78
2024/01/10 09:19:50;;;;;;;3.30;1.58;;;27.20;99.90;;;;;;5093896;28;20195;-78
2024/01/10 09:22:21;;;;;;;1.83;1.63;;;27.10;99.90;;;;;;5095461;28;20191;-78
2024/01/10 09:24:52;;;;;;;4.15;1.83;;;27.10;99.90;;;;;;5101001;28;20195;-78
2024/01/10 09:27:23;;;;;;;3.88;1.88;;;27.10;99.90;;;;;;5113321;28;20205;-78
2024/01/10 09:29:54;;;;;;;4.25;1.83;;;27.10;99.90;;;;;;5111668;28;20233;-79
2024/01/10 09:32:26;;;;;;;4.40;2.05;;;27.10;99.90;;;;;;5095845;28;20194;-79
2024/01/10 09:35:18;;;;;;;3.20;1.83;;;27.10;99.90;;;;;;5093331;28;20195;-79
2024/01/10 09:37:53;;;;;;;4.72;2.00;;;27.00;99.90;;;;;;5114039;27;20206;-78
2024/01/10 09:40:38;;;;;;;2.97;1.95;;;27.10;99.90;;;;;;5102279;27;20195;-78
2024/01/10 09:43:15;;;;;;;4.35;2.00;;;27.10;99.90;;;;;;5097251;28;20198;-79
2024/01/10 09:45:51;;;;;;;3.42;2.13;;;27.10;99.90;;;;;;5094310;28;20191;-78
2024/01/10 09:48:26;;;;;;;2.50;2.10;;;27.00;99.90;;;;;;5102311;28;20228;-79
2024/01/10 09:51:03;;;;;;;4.65;2.13;;;27.00;99.90;;;;;;5109983;28;20226;-79
2024/01/10 09:53:49;;;;;;;4.35;1.98;;;27.00;99.90;;;;;;5103222;28;20274;-79
2024/01/10 09:56:20;;;;;;;2.67;2.08;;;27.00;99.90;;;;;;5093155;28;20211;-78
2024/01/10 10:02:09;;;;;;;4.82;2.10;;;27.00;99.90;;;;;;5091270;28;20202;-79
2024/01/10 10:04:56;;;;;;;3.13;2.15;;;27.00;99.90;;;;;;5095564;28;20195;-79
2024/01/10 10:07:33;;;;;;;4.00;1.95;;;27.00;99.90;;;;;;5107678;28;20668;-78
2024/01/10 10:10:12;;;;;;;4.07;2.20;;;26.90;99.90;;;;;;5112736;28;20275;-79
2024/01/10 10:12:58;;;;;;;3.97;2.15;;;26.90;99.90;;;;;;5099780;28;20195;-78
2024/01/10 10:15:39;;;;;;;2.78;1.98;;;27.00;99.90;;;;;;5091597;28;20249;-79
2024/01/10 10:18:17;;;;;;;2.17;1.88;;;26.90;99.90;;;;;;5092961;28;20206;-79
2024/01/10 10:20:51;;;;;;;3.30;2.03;;;26.90;99.90;;;;;;5094838;28;20689;-79
2024/01/10 10:23:32;;;;;;;4.03;2.20;;;26.90;99.90;;;;;;5100738;28;20199;-79
2024/01/10 10:26:14;;;;;;;2.88;2.05;;;26.90;99.90;;;;;;5095179;28;20230;-78
2024/01/10 10:28:47;;;;;;;3.97;1.90;;;26.90;99.90;;;;;;5109558;28;20199;-78
2024/01/10 10:34:25;;;;;;;3.03;2.13;;;26.80;99.90;;;;;;5093147;28;20198;-77
2024/01/10 10:36:57;;;;;;;4.30;1.95;;;26.80;99.90;;;;;;5098799;28;20248;-77
2024/01/10 10:39:28;;;;;;;2.22;1.92;;;26.80;99.90;;;;;;5094762;28;20199;-77
2024/01/10 10:42:00;;;;;;;5.70;2.20;;;26.80;99.90;;;;;;5096222;28;20218;-76
2024/01/10 10:44:34;;;;;;;4.80;2.00;;;26.70;99.90;;;;;;5095606;28;20191;-79
2024/01/10 10:47:10;;;;;;;3.08;1.83;;;26.70;99.90;;;;;;5098006;28;20654;-78
2024/01/10 10:49:49;;;;;;;3.45;1.83;;;26.70;99.90;;;;;;5111813;28;20232;-78
2024/01/10 10:52:24;;;;;;;2.67;1.85;;;26.60;99.90;;;;;;5103131;28;20203;-76
2024/01/10 10:54:58;;;;;;;4.78;2.28;;;26.60;99.90;;;;;;5102061;28;20646;-78
2024/01/10 10:57:30;;;;;;;3.58;2.20;;;26.60;99.90;;;;;;5096043;28;20260;-78
2024/01/10 11:03:37;;;;;;;5.00;2.10;;;26.50;99.90;;;;;;5001478;28;20205;-79
2024/01/10 11:06:08;;;;;;;3.70;2.00;;;26.50;99.90;;;;;;5088644;28;20196;-78
2024/01/10 11:08:47;;;;;;;4.45;2.13;;;26.50;99.90;;;;;;5092612;28;20191;-77
2024/01/10 11:11:31;;;;;;;5.50;2.28;;;26.50;99.90;;;;;;5093681;28;20693;-76
2024/01/10 11:14:15;;;;;;;3.92;2.10;;;26.50;99.90;;;;;;5090097;28;20201;-76
2024/01/10 11:17:18;;;;;;;4.53;2.53;;;26.50;99.90;;;;;;5101539;28;20190;-76
2024/01/10 11:20:17;;;;;;;7.07;2.33;;;26.40;99.90;;;;;;5111925;27;20540;-76
2024/01/10 11:23:19;;;;;;;4.78;2.28;;;26.40;99.90;;;;;;5094981;27;20202;-77
2024/01/10 11:25:51;;;;;;;4.85;2.10;;;26.40;99.90;;;;;;5095183;28;20191;-78
2024/01/10 11:28:22;;;;;;;4.32;2.20;;;26.40;99.90;;;;;;5099240;28;20234;-77
2024/01/10 11:30:56;;;;;;;3.90;2.03;;;26.40;99.90;;;;;;5090400;28;20223;-78
2024/01/10 11:33:33;;;;;;;5.72;2.22;;;26.40;99.90;;;;;;5091009;28;20199;-78
2024/01/10 11:36:20;;;;;;;5.28;2.13;;;26.40;99.90;;;;;;5102800;28;20191;-77
2024/01/10 11:38:56;;;;;;;4.47;2.33;;;26.40;99.90;;;;;;5102524;28;20675;-78
2024/01/10 11:41:32;;;;;;;4.38;2.20;;;26.30;99.90;;;;;;5104563;28;20214;-77
2024/01/10 11:44:30;;;;;;;4.53;2.17;;;26.40;99.90;;;;;;5107498;28;20197;-78
2024/01/10 11:47:01;;;;;;;3.78;2.35;;;26.30;99.90;;;;;;5089654;28;20198;-78
2024/01/10 11:49:32;;;;;;;4.05;2.28;;;26.30;99.90;;;;;;5090207;28;20713;-77
2024/01/10 11:52:03;;;;;;;4.90;2.40;;;26.30;99.90;;;;;;5091001;28;20230;-77
2024/01/10 11:54:41;;;;;;;2.83;2.17;;;26.30;99.90;;;;;;5101498;28;20195;-77
2024/01/10 11:57:15;;;;;;;3.17;2.00;;;26.30;99.90;;;;;;5090355;28;20201;-77
2024/01/10 11:59:47;;;;;;;4.63;2.20;;;26.30;99.90;;;;;;5104531;28;20205;-77
2024/01/10 12:02:19;;;;;;;3.25;2.13;;;26.30;99.90;;;;;;5101758;28;20198;-77
2024/01/10 12:04:50;;;;;;;4.35;2.22;;;26.30;99.90;;;;;;5091503;28;20195;-77
2024/01/10 12:07:21;;;;;;;3.30;2.05;;;26.30;99.90;;;;;;5093941;28;20196;-77
2024/01/10 12:09:52;;;;;;;4.25;2.20;;;26.30;99.90;;;;;;5102731;28;20199;-77
2024/01/10 12:12:24;;;;;;;4.88;2.30;;;26.30;99.90;;;;;;5091871;28;20199;-77
2024/01/10 12:14:55;;;;;;;2.88;2.13;;;26.30;99.90;;;;;;5109393;28;20206;-77
2024/01/10 12:17:30;;;;;;;2.67;2.00;;;26.20;99.90;;;;;;5109509;28;20206;-77
2024/01/10 12:20:02;;;;;;;4.28;2.10;;;26.20;99.90;;;;;;5103643;28;20191;-77
2024/01/10 12:22:35;;;;;;;4.18;2.00;;;26.20;99.90;;;;;;5091069;28;20205;-77
2024/01/10 12:25:09;;;;;;;2.38;1.88;;;26.20;99.90;;;;;;5102601;28;20286;-77
2024/01/10 12:27:42;;;;;;;3.25;1.83;;;26.30;99.90;;;;;;5089906;28;20211;-77
2024/01/10 12:30:13;;;;;;;3.92;1.90;;;26.30;99.90;;;;;;5088951;28;20229;-77
2024/01/10 12:32:45;;;;;;;4.72;2.30;;;26.30;99.90;;;;;;5101549;28;20201;-77
2024/01/10 12:35:18;;;;;;;3.05;2.13;;;26.20;99.90;;;;;;5113666;28;20195;-76
2024/01/10 12:37:58;;;;;;;3.88;2.08;;;26.20;99.90;;;;;;5107570;28;20653;-77
2024/01/10 12:40:28;;;;;;;4.97;2.05;;;26.20;99.90;;;;;;5094669;28;20202;-77
2024/01/10 12:43:09;;;;;;;3.92;2.22;;;26.20;99.90;;;;;;5094504;28;20199;-77
2024/01/10 12:45:40;;;;;;;3.42;2.20;;;26.20;99.90;;;;;;5093471;28;20309;-77
2024/01/10 12:48:17;;;;;;;4.13;2.08;;;26.20;99.90;;;;;;5105088;28;20228;-77
2024/01/10 12:50:47;;;;;;;2.67;1.83;;;26.20;99.90;;;;;;5106892;28;20263;-78
2024/01/10 12:53:18;;;;;;;3.20;1.98;;;26.10;99.90;;;;;;5109111;28;20609;-77
2024/01/10 12:55:49;;;;;;;5.00;2.30;;;26.10;99.90;;;;;;5112999;28;20558;-77
2024/01/10 12:58:22;;;;;;;4.90;2.30;;;26.10;99.90;;;;;;5096680;28;20214;-78
2024/01/10 13:00:53;;;;;;;5.53;2.65;;;26.10;99.90;;;;;;5112132;28;20237;-77
2024/01/10 13:03:24;;;;;;;5.82;2.63;;;26.00;99.90;;;;;;5094684;28;20205;-77
2024/01/10 13:05:54;;;;;;;7.47;2.83;;;26.00;99.90;;;;;;5099772;28;20646;-77
2024/01/10 13:08:25;;;;;;;6.13;2.50;;;26.00;99.90;;;;;;5093774;28;20201;-78
2024/01/10 13:10:56;;;;;;;8.55;2.90;;;26.00;99.90;;;;;;5093362;28;20215;-78
2024/01/10 13:13:29;;;;;;;5.90;2.60;;;26.00;99.90;;;;;;5095129;28;20198;-77
2024/01/10 13:16:00;;;;;;;5.78;2.60;;;26.00;99.90;;;;;;5114023;28;20260;-77
2024/01/10 13:18:32;;;;;;;7.43;2.30;;;26.00;99.90;;;;;;5110317;28;21245;-78
2024/01/10 13:21:03;;;;;;;5.75;2.95;;;26.00;99.90;;;;;;5098579;28;20197;-78
2024/01/10 13:26:56;;;;;;;7.32;2.80;;;25.90;99.90;;;;;;5096300;28;20672;-77
2024/01/10 13:29:29;;;;;;;4.70;2.50;;;25.90;99.90;;;;;;5098951;28;20206;-78
2024/01/10 13:32:17;;;;;;;4.90;2.50;;;25.90;99.90;;;;;;5111107;28;20229;-77